Time;durP1;ratioP1;P1;durP2;ratioP2;P2;SDS_P1;SDS_P2;PMS_P1;PMS_P2;Temp;Humidity;BMP_temperature;BMP_pressure;BME280_temperature;BME280_humidity;BME280_pressure;Samples;Min_cycle;Max_cycle;Signal;HPM_P1;HPM_P2
2021/01/22 00:01:09;;;;;;;3.60;2.00;;;7.50;99.90;;;;;;4978357;28;20685;-69
2021/01/22 00:03:54;;;;;;;2.50;1.60;;;7.60;99.90;;;;;;4958322;28;20636;-68
2021/01/22 00:06:43;;;;;;;1.60;1.50;;;7.50;99.90;;;;;;4979516;28;20657;-68
2021/01/22 00:09:28;;;;;;;1.93;1.50;;;7.40;99.90;;;;;;4967012;28;20608;-68
2021/01/22 00:12:14;;;;;;;2.37;1.97;;;7.50;99.90;;;;;;4970568;28;20613;-68
2021/01/22 00:15:02;;;;;;;2.90;1.60;;;7.40;99.90;;;;;;4961764;28;20657;-68
2021/01/22 00:17:47;;;;;;;3.23;1.87;;;7.40;99.90;;;;;;4979943;28;20684;-67
2021/01/22 00:20:31;;;;;;;2.57;1.97;;;7.40;99.90;;;;;;4983633;28;20760;-68
2021/01/22 00:23:27;;;;;;;2.10;1.90;;;7.50;99.90;;;;;;4978445;28;20585;-68
2021/01/22 00:26:11;;;;;;;3.13;2.10;;;7.50;99.90;;;;;;4971742;28;20664;-69
2021/01/22 00:28:58;;;;;;;5.20;2.20;;;7.50;99.90;;;;;;4953206;28;20622;-68
2021/01/22 00:31:42;;;;;;;1.90;1.80;;;7.20;99.90;;;;;;4973656;28;20986;-68
2021/01/22 00:34:27;;;;;;;2.33;2.07;;;7.30;99.90;;;;;;4977778;28;21280;-68
2021/01/22 00:37:11;;;;;;;3.50;2.57;;;7.30;99.90;;;;;;4978912;28;20648;-69
2021/01/22 00:39:56;;;;;;;2.57;2.37;;;7.20;99.90;;;;;;4969941;28;20613;-68
2021/01/22 00:42:40;;;;;;;2.93;2.63;;;7.40;99.90;;;;;;4974882;28;21216;-68
2021/01/22 00:45:25;;;;;;;3.60;2.50;;;7.40;99.90;;;;;;4977650;28;20656;-69
2021/01/22 00:48:10;;;;;;;4.43;2.80;;;7.40;99.90;;;;;;4979613;28;20601;-69
2021/01/22 00:50:55;;;;;;;3.80;2.83;;;7.50;99.90;;;;;;4966049;28;20664;-69
2021/01/22 00:53:40;;;;;;;3.00;2.80;;;7.40;99.90;;;;;;4958980;28;20824;-69
2021/01/22 00:56:25;;;;;;;2.70;2.50;;;7.50;99.90;;;;;;4956585;28;21252;-69
2021/01/22 00:59:09;;;;;;;3.33;2.43;;;7.50;99.90;;;;;;4968666;28;20597;-70
2021/01/22 01:01:54;;;;;;;2.97;2.60;;;7.50;99.90;;;;;;4981467;28;20585;-69
2021/01/22 01:04:41;;;;;;;5.90;2.67;;;7.50;99.90;;;;;;4969751;28;21088;-68
2021/01/22 01:07:25;;;;;;;6.83;2.50;;;7.50;99.90;;;;;;4972481;28;20700;-69
2021/01/22 01:10:10;;;;;;;3.50;2.43;;;7.60;99.90;;;;;;4979842;28;20625;-69
2021/01/22 01:12:55;;;;;;;3.00;2.67;;;7.70;99.90;;;;;;4974604;28;20637;-69
2021/01/22 01:15:40;;;;;;;2.90;2.53;;;7.50;99.90;;;;;;4939053;28;21311;-68
2021/01/22 01:18:26;;;;;;;2.23;2.03;;;7.60;99.90;;;;;;4981367;28;20594;-69
2021/01/22 01:21:12;;;;;;;2.20;2.00;;;7.60;99.90;;;;;;4960900;28;21151;-69
2021/01/22 01:23:57;;;;;;;4.07;2.60;;;7.80;99.90;;;;;;4960885;28;20711;-68
2021/01/22 01:26:42;;;;;;;2.50;2.30;;;7.80;99.90;;;;;;4978300;28;21066;-69
2021/01/22 01:29:27;;;;;;;2.60;2.40;;;7.80;99.90;;;;;;4976779;28;20900;-68
2021/01/22 01:32:12;;;;;;;3.17;2.37;;;7.60;99.90;;;;;;4976621;28;20725;-69
2021/01/22 01:34:58;;;;;;;2.93;2.60;;;7.90;99.90;;;;;;4972388;28;21267;-68
2021/01/22 01:37:43;;;;;;;2.50;2.00;;;7.90;99.90;;;;;;4974738;28;21303;-69
2021/01/22 01:40:30;;;;;;;2.60;2.40;;;8.00;99.90;;;;;;4969657;28;20616;-69
2021/01/22 01:43:15;;;;;;;2.30;2.10;;;8.10;99.90;;;;;;4960991;28;21074;-69
2021/01/22 01:46:02;;;;;;;1.97;1.80;;;8.20;99.90;;;;;;4975574;28;20668;-68
2021/01/22 01:48:47;;;;;;;1.67;1.57;;;8.30;99.90;;;;;;4969157;28;20669;-68
2021/01/22 01:51:32;;;;;;;1.90;1.77;;;8.40;99.90;;;;;;4973851;28;21235;-69
2021/01/22 01:54:18;;;;;;;2.07;1.90;;;8.50;99.90;;;;;;4972319;28;20645;-69
2021/01/22 01:57:06;;;;;;;2.53;1.40;;;8.60;99.90;;;;;;4967069;28;20789;-68
2021/01/22 01:59:51;;;;;;;1.50;1.40;;;8.80;99.90;;;;;;4975451;28;20586;-68
2021/01/22 02:02:35;;;;;;;2.33;1.60;;;8.90;99.90;;;;;;4978357;28;20924;-69
2021/01/22 02:05:20;;;;;;;1.60;1.50;;;9.00;99.90;;;;;;4972570;28;20634;-69
2021/01/22 02:08:05;;;;;;;1.50;1.40;;;9.00;99.90;;;;;;5005745;22;20712;-76
2021/01/22 02:10:49;;;;;;;2.07;1.97;;;9.10;99.90;;;;;;4986610;28;20644;-75
2021/01/22 02:13:35;;;;;;;1.40;1.30;;;9.20;99.90;;;;;;4986988;28;20644;-76
2021/01/22 02:16:20;;;;;;;2.70;1.70;;;9.30;99.90;;;;;;4976973;28;20645;-76
2021/01/22 02:19:10;;;;;;;1.50;1.40;;;9.30;99.90;;;;;;4975338;28;20692;-76
2021/01/22 02:21:55;;;;;;;1.50;1.40;;;9.30;99.90;;;;;;4973091;28;20624;-76
2021/01/22 02:24:41;;;;;;;1.97;1.50;;;9.40;99.90;;;;;;4991634;28;20744;-76
2021/01/22 02:27:27;;;;;;;1.83;1.40;;;9.40;99.90;;;;;;4990370;28;20741;-76
2021/01/22 02:30:15;;;;;;;1.50;1.40;;;9.50;99.90;;;;;;4982146;28;20936;-76
2021/01/22 02:33:03;;;;;;;1.30;1.20;;;9.40;99.90;;;;;;4982079;28;20604;-76
2021/01/22 02:35:52;;;;;;;1.33;1.23;;;9.50;99.90;;;;;;4988974;28;20763;-76
2021/01/22 02:38:41;;;;;;;1.90;1.20;;;9.60;99.90;;;;;;4975951;28;20588;-76
2021/01/22 02:41:28;;;;;;;1.33;1.23;;;9.60;99.90;;;;;;4993333;28;20636;-76
2021/01/22 02:44:13;;;;;;;1.37;1.30;;;9.60;99.90;;;;;;4985180;28;21099;-76
2021/01/22 02:47:00;;;;;;;2.70;1.27;;;9.60;99.90;;;;;;4979308;28;21142;-76
2021/01/22 02:49:54;;;;;;;1.30;1.20;;;9.60;99.90;;;;;;4994819;28;20596;-76
2021/01/22 02:52:39;;;;;;;1.50;1.40;;;9.70;99.90;;;;;;4986594;28;20639;-74
2021/01/22 02:55:23;;;;;;;1.77;1.40;;;9.70;99.90;;;;;;4971637;28;20676;-74
2021/01/22 02:58:36;;;;;;;1.53;1.43;;;9.80;99.90;;;;;;4977931;28;20640;-76
2021/01/22 03:01:26;;;;;;;1.40;1.30;;;9.60;99.90;;;;;;4988682;28;20782;-74
2021/01/22 03:04:13;;;;;;;1.60;1.50;;;9.70;99.90;;;;;;4986033;28;20632;-75
2021/01/22 03:07:00;;;;;;;1.37;1.27;;;9.70;99.90;;;;;;4987673;28;21007;-76
2021/01/22 03:09:49;;;;;;;1.20;1.10;;;9.60;99.90;;;;;;4989361;28;20767;-76
2021/01/22 03:12:35;;;;;;;1.47;1.33;;;9.60;99.90;;;;;;4972396;28;20621;-74
2021/01/22 03:15:23;;;;;;;2.10;1.30;;;9.70;99.90;;;;;;4982041;28;20730;-75
2021/01/22 03:18:17;;;;;;;1.27;1.20;;;9.60;99.90;;;;;;4980758;28;20643;-76
2021/01/22 03:21:08;;;;;;;1.23;1.13;;;9.70;99.90;;;;;;4979848;28;20608;-73
2021/01/22 03:23:53;;;;;;;1.40;1.30;;;9.80;99.90;;;;;;4976602;28;20683;-76
2021/01/22 03:26:37;;;;;;;1.30;1.20;;;9.70;99.90;;;;;;4983587;28;20783;-76
2021/01/22 03:29:22;;;;;;;1.67;1.57;;;9.70;99.90;;;;;;4987362;28;20608;-74
2021/01/22 03:32:07;;;;;;;1.60;1.30;;;9.70;99.90;;;;;;4979026;28;20597;-74
2021/01/22 03:34:52;;;;;;;1.30;1.20;;;9.70;99.90;;;;;;4984208;28;21065;-76
2021/01/22 03:37:36;;;;;;;1.20;1.10;;;9.80;99.90;;;;;;4978080;28;20652;-74
2021/01/22 03:40:24;;;;;;;1.13;0.97;;;9.90;99.90;;;;;;5002300;28;20620;-74
2021/01/22 03:43:08;;;;;;;1.83;1.27;;;9.90;99.90;;;;;;4979840;28;20741;-73
2021/01/22 03:45:53;;;;;;;1.17;0.77;;;10.00;99.90;;;;;;4990532;28;20616;-74
2021/01/22 03:48:38;;;;;;;0.90;0.80;;;10.00;99.90;;;;;;4981378;28;21170;-74
2021/01/22 03:51:23;;;;;;;1.20;1.10;;;10.10;99.90;;;;;;4983433;28;20672;-74
2021/01/22 03:54:09;;;;;;;1.00;0.90;;;10.00;99.90;;;;;;4978631;28;20732;-74
2021/01/22 03:56:57;;;;;;;0.93;0.93;;;10.00;99.90;;;;;;4969919;28;20668;-73
2021/01/22 03:59:42;;;;;;;1.50;1.00;;;10.10;99.90;;;;;;4978617;28;20597;-74
2021/01/22 04:02:26;;;;;;;0.80;0.80;;;10.20;99.90;;;;;;4996986;28;20640;-74
2021/01/22 04:05:12;;;;;;;1.20;1.10;;;10.20;99.90;;;;;;4972928;28;20655;-73
2021/01/22 04:07:56;;;;;;;1.30;0.90;;;10.20;99.90;;;;;;4988136;28;20663;-75
2021/01/22 04:10:41;;;;;;;1.20;1.10;;;10.10;99.90;;;;;;4974623;28;20588;-73
2021/01/22 04:13:26;;;;;;;1.20;0.93;;;10.20;99.90;;;;;;4974635;28;20597;-76
2021/01/22 04:16:15;;;;;;;1.70;0.93;;;10.10;99.90;;;;;;4980349;28;21294;-73
2021/01/22 04:19:02;;;;;;;1.37;1.00;;;10.10;99.90;;;;;;4975217;28;21094;-73
2021/01/22 04:21:46;;;;;;;0.97;0.97;;;10.10;99.90;;;;;;4996448;28;20627;-73
2021/01/22 04:24:31;;;;;;;1.73;1.23;;;10.20;99.90;;;;;;4974831;28;21351;-73
2021/01/22 04:27:15;;;;;;;2.97;1.03;;;10.20;99.90;;;;;;4973195;28;20652;-74
2021/01/22 04:29:59;;;;;;;1.33;0.80;;;9.90;99.90;;;;;;4972146;28;21290;-74
2021/01/22 04:32:49;;;;;;;1.93;0.43;;;9.70;99.90;;;;;;4977694;28;20594;-76
2021/01/22 04:35:34;;;;;;;1.03;0.40;;;9.60;99.90;;;;;;4979709;28;21002;-74
2021/01/22 04:38:21;;;;;;;0.40;0.40;;;9.50;99.90;;;;;;4978834;28;20655;-73
2021/01/22 04:41:06;;;;;;;0.60;0.60;;;9.40;99.90;;;;;;4988097;28;20687;-74
2021/01/22 04:43:50;;;;;;;0.67;0.63;;;9.10;99.90;;;;;;4983502;28;20636;-76
2021/01/22 04:46:36;;;;;;;0.70;0.63;;;8.80;99.90;;;;;;4988686;28;20728;-74
2021/01/22 04:49:21;;;;;;;1.07;0.80;;;8.50;99.90;;;;;;4981044;28;20781;-74
2021/01/22 04:52:12;;;;;;;0.70;0.70;;;8.20;99.90;;;;;;4978314;28;20624;-74
2021/01/22 04:55:00;;;;;;;0.80;0.80;;;7.90;99.90;;;;;;4977710;28;21206;-74
2021/01/22 04:57:48;;;;;;;1.00;1.00;;;7.40;99.90;;;;;;4986188;28;20985;-74
2021/01/22 05:00:33;;;;;;;0.80;0.80;;;7.20;99.90;;;;;;4998976;28;20604;-73
2021/01/22 05:03:26;;;;;;;0.90;0.90;;;7.20;99.90;;;;;;4979769;28;20624;-73
2021/01/22 05:06:10;;;;;;;0.93;0.90;;;6.90;99.90;;;;;;4982489;28;20624;-74
2021/01/22 05:08:55;;;;;;;1.13;1.03;;;6.70;99.90;;;;;;4983813;28;20640;-74
2021/01/22 05:11:39;;;;;;;1.47;1.37;;;6.80;99.90;;;;;;4977777;28;20604;-73
2021/01/22 05:14:24;;;;;;;1.90;1.70;;;6.60;99.90;;;;;;4987888;28;21262;-73
2021/01/22 05:17:14;;;;;;;1.50;1.40;;;6.50;99.90;;;;;;4979177;28;20926;-73
2021/01/22 05:20:08;;;;;;;1.10;1.00;;;6.40;99.90;;;;;;4970707;28;20598;-74
2021/01/22 05:22:53;;;;;;;1.10;1.00;;;6.30;99.90;;;;;;4996133;28;20581;-73
2021/01/22 05:25:57;;;;;;;2.00;0.90;;;6.30;99.90;;;;;;4985275;28;21153;-74
2021/01/22 05:28:44;;;;;;;0.93;0.93;;;6.30;99.90;;;;;;4989416;28;20615;-74
2021/01/22 05:31:30;;;;;;;0.80;0.80;;;6.40;99.90;;;;;;4983502;28;20596;-74
2021/01/22 05:34:15;;;;;;;0.87;0.87;;;6.10;99.90;;;;;;4976952;28;21347;-74
2021/01/22 05:37:07;;;;;;;0.90;0.90;;;6.20;99.90;;;;;;4981308;28;20831;-74
2021/01/22 05:40:12;;;;;;;0.87;0.87;;;6.10;99.90;;;;;;4988805;28;20939;-74
2021/01/22 05:43:09;;;;;;;0.90;0.80;;;6.00;99.90;;;;;;4985085;28;21162;-74
2021/01/22 05:45:54;;;;;;;0.90;0.90;;;6.00;99.90;;;;;;4976110;28;20648;-74
2021/01/22 05:48:38;;;;;;;0.80;0.80;;;6.00;99.90;;;;;;4989150;28;20589;-74
2021/01/22 05:51:31;;;;;;;1.70;1.27;;;6.00;99.90;;;;;;4985030;28;20605;-74
2021/01/22 05:54:38;;;;;;;1.67;1.57;;;6.00;99.90;;;;;;4974856;28;20649;-74
2021/01/22 05:57:24;;;;;;;2.60;2.03;;;5.90;99.90;;;;;;4983694;28;20796;-74
2021/01/22 06:00:11;;;;;;;2.70;2.40;;;5.80;99.90;;;;;;4976823;28;20700;-74
2021/01/22 06:02:55;;;;;;;2.63;2.43;;;5.70;99.90;;;;;;4978427;28;20605;-74
2021/01/22 06:05:52;;;;;;;4.07;2.70;;;5.60;99.90;;;;;;4978011;28;21310;-76
2021/01/22 06:08:53;;;;;;;3.07;2.77;;;5.60;99.90;;;;;;4982725;28;20986;-74
2021/01/22 06:11:41;;;;;;;3.27;2.97;;;5.70;99.90;;;;;;4987469;28;20639;-74
2021/01/22 06:14:27;;;;;;;2.67;2.43;;;5.80;99.90;;;;;;4977328;28;20648;-74
2021/01/22 06:17:15;;;;;;;2.83;2.50;;;5.80;99.90;;;;;;4978462;28;21548;-74
2021/01/22 06:20:02;;;;;;;3.03;2.73;;;5.90;99.90;;;;;;4976499;28;20671;-74
2021/01/22 06:23:05;;;;;;;2.87;2.27;;;5.90;99.90;;;;;;4970304;28;20593;-74
2021/01/22 06:25:51;;;;;;;2.53;2.30;;;6.00;99.90;;;;;;4968167;28;20947;-75
2021/01/22 06:28:36;;;;;;;2.50;2.30;;;6.00;99.90;;;;;;4979010;28;20639;-74
2021/01/22 06:31:21;;;;;;;2.20;2.00;;;5.90;99.90;;;;;;4971419;28;20588;-74
2021/01/22 06:34:06;;;;;;;2.40;2.20;;;5.90;99.90;;;;;;4973706;28;20691;-75
2021/01/22 06:36:52;;;;;;;3.50;2.40;;;5.90;99.90;;;;;;4977473;28;21075;-73
2021/01/22 06:39:42;;;;;;;2.43;2.23;;;5.90;99.90;;;;;;4987940;28;21219;-74
2021/01/22 06:42:27;;;;;;;4.03;2.40;;;5.90;99.90;;;;;;4975022;28;21000;-74
2021/01/22 06:45:12;;;;;;;2.57;2.37;;;5.90;99.90;;;;;;4971502;28;21134;-74
2021/01/22 06:48:00;;;;;;;2.50;2.30;;;5.80;99.90;;;;;;4993793;28;21052;-74
2021/01/22 06:50:46;;;;;;;3.33;2.90;;;5.80;99.90;;;;;;4964537;28;20644;-73
2021/01/22 06:53:30;;;;;;;3.13;2.83;;;5.90;99.90;;;;;;4977695;28;21960;-73
2021/01/22 06:56:15;;;;;;;4.57;2.40;;;5.80;99.90;;;;;;4982400;28;20752;-73
2021/01/22 06:59:38;;;;;;;4.37;2.97;;;5.80;99.90;;;;;;4969617;28;20784;-73
2021/01/22 07:02:31;;;;;;;2.80;2.50;;;5.80;99.90;;;;;;4980837;28;20607;-73
2021/01/22 07:05:28;;;;;;;2.77;2.40;;;5.80;99.90;;;;;;4969982;28;20640;-74
2021/01/22 07:08:13;;;;;;;3.70;3.00;;;5.80;99.90;;;;;;4974985;28;20676;-74
2021/01/22 07:11:02;;;;;;;3.20;2.90;;;5.70;99.90;;;;;;4981097;28;20772;-74
2021/01/22 07:13:47;;;;;;;3.07;2.77;;;5.70;99.90;;;;;;4978554;28;21068;-74
2021/01/22 07:16:35;;;;;;;3.80;3.40;;;5.60;99.90;;;;;;4993654;28;20676;-73
2021/01/22 07:19:21;;;;;;;3.10;2.80;;;5.70;99.90;;;;;;4984755;28;20688;-74
2021/01/22 07:22:06;;;;;;;3.30;2.90;;;5.70;99.90;;;;;;4978062;28;20619;-74
2021/01/22 07:24:53;;;;;;;3.63;2.93;;;5.50;99.90;;;;;;4944321;28;20672;-74
2021/01/22 07:27:40;;;;;;;5.47;3.53;;;5.50;99.90;;;;;;4965925;28;20683;-73
2021/01/22 07:30:37;;;;;;;5.23;3.67;;;5.50;99.90;;;;;;4952698;28;20663;-73
2021/01/22 07:33:27;;;;;;;5.97;3.93;;;5.50;99.90;;;;;;4949521;28;20645;-74
2021/01/22 07:36:19;;;;;;;6.40;4.80;;;5.50;99.90;;;;;;4964517;28;21239;-73
2021/01/22 07:39:04;;;;;;;6.90;5.27;;;5.60;99.90;;;;;;4946597;28;20876;-74
2021/01/22 07:41:48;;;;;;;6.10;5.30;;;5.60;99.90;;;;;;4949049;28;20669;-74
2021/01/22 07:44:34;;;;;;;9.10;6.37;;;5.70;99.90;;;;;;4953884;28;21344;-74
2021/01/22 07:47:27;;;;;;;7.43;6.20;;;5.60;99.90;;;;;;4955275;28;20722;-74
2021/01/22 07:50:17;;;;;;;6.90;6.20;;;5.70;99.90;;;;;;4981259;28;21084;-74
2021/01/22 07:53:04;;;;;;;9.63;6.80;;;5.60;99.90;;;;;;4988847;28;20608;-73
2021/01/22 07:55:53;;;;;;;7.10;6.40;;;5.70;99.90;;;;;;4974775;28;20660;-74
2021/01/22 07:58:38;;;;;;;12.57;7.37;;;5.70;99.90;;;;;;4975115;28;20597;-73
2021/01/22 08:01:23;;;;;;;8.10;7.07;;;5.70;99.90;;;;;;4969655;28;20636;-73
2021/01/22 08:04:08;;;;;;;10.93;8.00;;;5.60;99.90;;;;;;4979132;28;21031;-73
2021/01/22 08:06:53;;;;;;;7.53;6.60;;;5.60;99.90;;;;;;4996702;28;20727;-73
2021/01/22 08:09:51;;;;;;;9.50;7.20;;;5.70;99.90;;;;;;4973497;28;20636;-73
2021/01/22 08:12:37;;;;;;;8.33;7.50;;;5.80;99.90;;;;;;4980545;28;20637;-73
2021/01/22 08:15:22;;;;;;;9.93;7.10;;;5.80;99.90;;;;;;4980637;28;20652;-73
2021/01/22 08:18:06;;;;;;;8.80;6.70;;;5.70;99.90;;;;;;4977591;28;20660;-73
2021/01/22 08:20:51;;;;;;;10.20;7.00;;;5.80;99.90;;;;;;4974898;28;20685;-73
2021/01/22 08:23:37;;;;;;;9.07;7.70;;;5.90;99.90;;;;;;4978834;28;20641;-73
2021/01/22 08:26:21;;;;;;;8.00;6.83;;;5.90;99.90;;;;;;4983626;28;21171;-73
2021/01/22 08:29:06;;;;;;;10.97;7.50;;;5.90;99.90;;;;;;4974009;28;20672;-73
2021/01/22 08:31:52;;;;;;;9.30;7.40;;;5.90;99.90;;;;;;4977468;28;20645;-73
2021/01/22 08:34:37;;;;;;;9.40;7.27;;;5.90;99.90;;;;;;4985033;28;20685;-73
2021/01/22 08:37:22;;;;;;;7.97;7.17;;;6.00;99.90;;;;;;4994588;28;20667;-73
2021/01/22 08:40:08;;;;;;;8.80;6.40;;;6.10;99.90;;;;;;5005833;28;20682;-73
2021/01/22 08:42:58;;;;;;;9.77;7.00;;;6.00;99.90;;;;;;4971909;28;20608;-73
2021/01/22 08:46:02;;;;;;;9.60;7.07;;;6.00;99.90;;;;;;4971722;28;20636;-73
2021/01/22 08:48:47;;;;;;;9.47;7.43;;;6.00;99.90;;;;;;4969536;28;20703;-74
2021/01/22 08:51:36;;;;;;;9.17;7.80;;;6.10;99.90;;;;;;4971720;28;20711;-74
2021/01/22 08:54:20;;;;;;;8.60;7.17;;;6.10;99.90;;;;;;4973365;28;20644;-73
2021/01/22 08:57:05;;;;;;;10.03;6.87;;;6.20;99.90;;;;;;4980509;28;20680;-74
2021/01/22 08:59:54;;;;;;;8.40;6.70;;;6.30;99.90;;;;;;4970081;28;21139;-73
2021/01/22 09:02:42;;;;;;;9.40;6.80;;;6.20;99.90;;;;;;4972308;28;20690;-73
2021/01/22 09:05:26;;;;;;;10.17;7.43;;;6.30;99.90;;;;;;4973572;28;20656;-73
2021/01/22 09:08:13;;;;;;;9.97;6.60;;;6.40;99.90;;;;;;4979896;28;21153;-74
2021/01/22 09:10:58;;;;;;;8.43;7.53;;;6.50;99.90;;;;;;4987033;28;20565;-74
2021/01/22 09:13:54;;;;;;;8.80;7.00;;;6.40;99.90;;;;;;4978088;28;20796;-73
2021/01/22 09:16:46;;;;;;;9.60;6.83;;;6.50;99.90;;;;;;4981154;28;20684;-73
2021/01/22 09:19:59;;;;;;;8.90;6.60;;;6.50;99.90;;;;;;4982259;28;20593;-73
2021/01/22 09:22:46;;;;;;;9.20;7.13;;;6.30;99.90;;;;;;4975980;28;21175;-73
2021/01/22 09:25:31;;;;;;;8.50;7.10;;;6.20;99.90;;;;;;4980196;28;20660;-73
2021/01/22 09:28:15;;;;;;;8.20;6.73;;;6.20;99.90;;;;;;4978543;28;20668;-74
2021/01/22 09:31:00;;;;;;;9.93;7.87;;;6.10;99.90;;;;;;4972198;28;20617;-73
2021/01/22 09:33:44;;;;;;;10.20;7.17;;;6.10;99.90;;;;;;4977036;28;20633;-73
2021/01/22 09:36:29;;;;;;;10.40;7.73;;;6.10;99.90;;;;;;4979442;28;21214;-73
2021/01/22 09:39:13;;;;;;;11.00;7.70;;;6.00;99.90;;;;;;4976871;28;20632;-74
2021/01/22 09:42:00;;;;;;;11.13;7.80;;;6.10;99.90;;;;;;4977620;28;20692;-73
2021/01/22 09:44:45;;;;;;;11.07;7.87;;;6.10;99.90;;;;;;4985077;28;21334;-73
2021/01/22 09:47:29;;;;;;;9.87;7.43;;;6.10;99.90;;;;;;4988020;28;20649;-73
2021/01/22 09:50:15;;;;;;;11.00;8.47;;;6.20;99.90;;;;;;4979914;28;20580;-73
2021/01/22 09:53:00;;;;;;;11.83;7.60;;;6.20;99.90;;;;;;4994380;28;20606;-73
2021/01/22 09:55:45;;;;;;;10.00;7.87;;;6.30;99.90;;;;;;4984098;28;20632;-73
2021/01/22 09:58:29;;;;;;;9.70;8.10;;;6.30;99.90;;;;;;4982671;28;21012;-73
2021/01/22 10:01:13;;;;;;;8.83;7.07;;;6.20;99.90;;;;;;4986917;28;20746;-73
2021/01/22 10:03:58;;;;;;;9.50;7.30;;;6.30;99.90;;;;;;4981707;28;20636;-74
2021/01/22 10:06:42;;;;;;;10.57;7.20;;;6.40;99.90;;;;;;4980220;28;20647;-73
2021/01/22 10:09:27;;;;;;;8.63;7.73;;;6.50;99.90;;;;;;4978288;28;20616;-73
2021/01/22 10:12:13;;;;;;;11.27;8.23;;;6.40;99.90;;;;;;4975475;28;20981;-73
2021/01/22 10:14:57;;;;;;;12.40;7.60;;;6.40;99.90;;;;;;4975260;28;21139;-74
2021/01/22 10:17:42;;;;;;;9.40;7.73;;;6.50;99.90;;;;;;4976482;28;20824;-74
2021/01/22 10:20:26;;;;;;;8.17;6.90;;;6.50;99.90;;;;;;4973954;28;20670;-73
2021/01/22 10:23:10;;;;;;;10.40;8.03;;;6.50;99.90;;;;;;4977654;28;20763;-74
2021/01/22 10:25:55;;;;;;;10.53;8.03;;;6.70;99.90;;;;;;4975038;28;20659;-73
2021/01/22 10:28:40;;;;;;;10.33;8.70;;;6.70;99.90;;;;;;4977896;28;20730;-74
2021/01/22 10:31:25;;;;;;;12.87;8.67;;;6.70;99.90;;;;;;4977990;28;20703;-73
2021/01/22 10:34:10;;;;;;;8.80;7.90;;;6.70;99.90;;;;;;4981156;28;21009;-73
2021/01/22 10:36:54;;;;;;;9.90;8.00;;;6.80;99.90;;;;;;4978354;28;20706;-73
2021/01/22 10:39:38;;;;;;;9.77;8.03;;;6.80;99.90;;;;;;4977081;28;21258;-74
2021/01/22 10:42:25;;;;;;;12.63;8.97;;;6.80;99.90;;;;;;4978305;28;20768;-73
2021/01/22 10:45:10;;;;;;;9.60;7.87;;;6.90;99.90;;;;;;4979657;28;20632;-73
2021/01/22 10:47:57;;;;;;;10.03;8.00;;;7.00;99.90;;;;;;4986716;28;20814;-74
2021/01/22 10:50:42;;;;;;;8.90;8.00;;;7.00;99.90;;;;;;4980464;28;20587;-73
2021/01/22 10:53:27;;;;;;;12.37;8.07;;;7.00;99.90;;;;;;4961004;28;20632;-74
2021/01/22 10:56:13;;;;;;;10.73;8.83;;;7.00;99.90;;;;;;4948860;28;21474;-74
2021/01/22 10:58:58;;;;;;;9.43;7.00;;;7.00;99.90;;;;;;4978806;28;20703;-74
2021/01/22 11:01:43;;;;;;;11.23;8.70;;;6.90;99.90;;;;;;4982407;28;20613;-74
2021/01/22 11:04:27;;;;;;;8.80;7.20;;;6.90;99.90;;;;;;4983106;28;20981;-74
2021/01/22 11:07:14;;;;;;;7.70;6.77;;;7.00;99.90;;;;;;4983996;28;21067;-74
2021/01/22 11:09:59;;;;;;;12.87;6.80;;;7.00;99.90;;;;;;4985725;28;20584;-75
2021/01/22 11:12:45;;;;;;;7.73;6.93;;;7.20;99.90;;;;;;4981920;28;20624;-74
2021/01/22 11:15:33;;;;;;;11.10;7.53;;;7.20;99.90;;;;;;4987509;28;20655;-74
2021/01/22 11:18:17;;;;;;;9.13;7.33;;;7.20;99.90;;;;;;4979500;28;20664;-74
2021/01/22 11:21:02;;;;;;;9.80;7.63;;;7.30;99.90;;;;;;4983075;28;20977;-73
2021/01/22 11:23:46;;;;;;;14.83;10.93;;;7.40;99.90;;;;;;4979496;28;20652;-71
2021/01/22 11:26:32;;;;;;;27.70;18.73;;;7.50;99.90;;;;;;4993253;28;20652;-71
2021/01/22 11:29:16;;;;;;;21.90;14.03;;;7.50;99.90;;;;;;4979404;28;20620;-71
2021/01/22 11:32:01;;;;;;;11.80;7.47;;;7.60;99.90;;;;;;4985627;28;21118;-77
2021/01/22 11:34:47;;;;;;;8.53;6.30;;;7.60;99.90;;;;;;4982164;28;20636;-75
2021/01/22 11:37:32;;;;;;;7.33;6.30;;;7.70;99.90;;;;;;4979045;28;20722;-74
2021/01/22 11:40:17;;;;;;;9.10;6.63;;;7.70;99.90;;;;;;4982971;28;20592;-74
2021/01/22 11:43:01;;;;;;;7.40;6.60;;;7.70;99.90;;;;;;4982848;28;21162;-74
2021/01/22 11:45:46;;;;;;;7.47;6.53;;;7.70;99.90;;;;;;4984256;28;20719;-74
2021/01/22 11:48:31;;;;;;;7.87;6.50;;;7.80;99.90;;;;;;4992276;28;20659;-75
2021/01/22 11:52:05;;;;;;;7.20;6.40;;;7.80;99.90;;;;;;4987676;28;20632;-75
2021/01/22 11:54:50;;;;;;;7.57;6.37;;;7.90;99.90;;;;;;4995829;28;21132;-74
2021/01/22 11:57:35;;;;;;;8.93;5.70;;;7.80;99.90;;;;;;4984195;28;20673;-76
2021/01/22 12:00:20;;;;;;;7.20;6.17;;;7.70;99.90;;;;;;4984250;28;20636;-75
2021/01/22 12:03:05;;;;;;;7.13;6.13;;;7.70;99.90;;;;;;4971629;28;20624;-75
2021/01/22 12:05:50;;;;;;;8.23;7.20;;;7.70;99.90;;;;;;4951955;28;20996;-75
2021/01/22 12:08:34;;;;;;;9.63;6.43;;;7.70;99.90;;;;;;4953985;28;20711;-75
2021/01/22 12:11:19;;;;;;;6.27;5.40;;;7.70;99.90;;;;;;4952910;28;20681;-74
2021/01/22 12:14:03;;;;;;;7.10;6.00;;;7.70;99.90;;;;;;4957104;28;20641;-75
2021/01/22 12:16:48;;;;;;;7.30;6.50;;;7.70;99.90;;;;;;4955644;28;20764;-74
2021/01/22 12:19:32;;;;;;;7.63;6.67;;;7.60;99.90;;;;;;4958946;28;22293;-75
2021/01/22 12:22:17;;;;;;;6.73;6.13;;;7.70;99.90;;;;;;4951947;28;21780;-75
2021/01/22 12:25:02;;;;;;;7.90;7.10;;;7.70;99.90;;;;;;4950741;28;20691;-74
2021/01/22 12:27:47;;;;;;;8.30;6.70;;;7.70;99.90;;;;;;4954413;28;22454;-74
2021/01/22 12:30:32;;;;;;;8.30;6.87;;;7.60;99.90;;;;;;4957322;28;20602;-74
2021/01/22 12:33:16;;;;;;;11.13;7.00;;;7.60;99.90;;;;;;4978751;28;20596;-73
2021/01/22 12:36:01;;;;;;;8.73;7.73;;;7.60;99.90;;;;;;4980660;28;20581;-75
2021/01/22 12:38:45;;;;;;;7.63;6.70;;;7.60;99.90;;;;;;4985266;28;20612;-75
2021/01/22 12:41:33;;;;;;;8.30;7.37;;;7.60;99.90;;;;;;4983521;28;21040;-74
2021/01/22 12:44:17;;;;;;;7.90;6.80;;;7.60;99.90;;;;;;4979584;28;20652;-74
2021/01/22 12:47:02;;;;;;;7.40;6.77;;;7.60;99.90;;;;;;4978528;28;20659;-74
2021/01/22 12:49:46;;;;;;;9.80;8.00;;;7.70;99.90;;;;;;4985096;28;20695;-74
2021/01/22 12:52:31;;;;;;;7.43;6.70;;;7.70;99.90;;;;;;4976476;28;20677;-74
2021/01/22 12:55:15;;;;;;;8.50;6.83;;;7.80;99.90;;;;;;4974771;28;21073;-74
2021/01/22 12:58:00;;;;;;;8.27;7.20;;;7.90;99.90;;;;;;4981512;28;20758;-75
2021/01/22 13:00:44;;;;;;;9.07;7.60;;;8.00;99.90;;;;;;4956751;28;20744;-75
2021/01/22 13:03:29;;;;;;;7.87;7.07;;;8.00;99.90;;;;;;4946715;28;21739;-75
2021/01/22 13:06:14;;;;;;;11.03;7.33;;;8.10;99.90;;;;;;4972371;28;20671;-75
2021/01/22 13:09:01;;;;;;;8.03;7.13;;;8.20;99.90;;;;;;4977975;28;20997;-74
2021/01/22 13:11:45;;;;;;;11.70;6.70;;;8.30;99.90;;;;;;4991159;28;20663;-73
2021/01/22 13:14:30;;;;;;;8.53;6.47;;;8.20;99.90;;;;;;4975888;28;20647;-74
2021/01/22 13:17:15;;;;;;;8.03;6.73;;;8.10;99.90;;;;;;4979608;28;20712;-75
2021/01/22 13:19:59;;;;;;;7.33;6.63;;;8.10;99.90;;;;;;4980752;28;20672;-76
2021/01/22 13:22:44;;;;;;;7.27;6.57;;;8.20;99.90;;;;;;4977898;28;20629;-74
2021/01/22 13:25:28;;;;;;;8.70;6.87;;;8.30;99.90;;;;;;4968448;28;21231;-75
2021/01/22 13:28:13;;;;;;;8.00;6.17;;;8.30;99.90;;;;;;4973444;28;21131;-75
2021/01/22 13:30:57;;;;;;;8.30;6.00;;;8.30;99.90;;;;;;4980938;28;20616;-75
2021/01/22 13:33:42;;;;;;;8.03;7.23;;;8.30;99.90;;;;;;4981085;28;21047;-74
2021/01/22 13:36:26;;;;;;;7.17;6.47;;;8.40;99.90;;;;;;4981794;28;20625;-74
2021/01/22 13:39:11;;;;;;;7.43;6.43;;;8.20;99.90;;;;;;4983919;28;20800;-74
2021/01/22 13:41:56;;;;;;;8.80;6.77;;;8.20;99.90;;;;;;4976589;28;20600;-74
2021/01/22 13:44:41;;;;;;;7.47;6.67;;;8.20;99.90;;;;;;4977096;28;21072;-77
2021/01/22 13:47:25;;;;;;;12.00;7.70;;;8.20;99.90;;;;;;4978501;28;20668;-74
2021/01/22 13:50:11;;;;;;;9.90;7.10;;;8.10;99.90;;;;;;4977496;28;20609;-74
2021/01/22 13:52:57;;;;;;;8.00;6.17;;;8.10;99.90;;;;;;4979534;28;20705;-75
2021/01/22 13:55:42;;;;;;;8.27;7.23;;;8.10;99.90;;;;;;4993261;28;20663;-74
2021/01/22 13:58:29;;;;;;;7.70;6.90;;;8.10;99.90;;;;;;4977916;28;20656;-74
2021/01/22 14:01:13;;;;;;;10.43;7.63;;;8.00;99.90;;;;;;4981641;28;20768;-74
2021/01/22 14:03:57;;;;;;;8.00;7.20;;;8.00;99.90;;;;;;4995433;28;21119;-74
2021/01/22 14:06:42;;;;;;;8.00;6.60;;;8.00;99.90;;;;;;4982794;28;21012;-75
2021/01/22 14:09:26;;;;;;;9.90;7.80;;;7.90;99.90;;;;;;4978895;28;20688;-74
2021/01/22 14:12:11;;;;;;;7.80;7.00;;;7.80;99.90;;;;;;4980189;28;20609;-75
2021/01/22 14:14:56;;;;;;;8.10;7.10;;;7.70;99.90;;;;;;4994285;28;20673;-75
2021/01/22 14:17:41;;;;;;;7.97;7.17;;;7.80;99.90;;;;;;4984509;28;20676;-74
2021/01/22 14:20:25;;;;;;;7.60;6.83;;;7.80;99.90;;;;;;4982919;28;20652;-75
2021/01/22 14:23:09;;;;;;;10.13;7.50;;;7.90;99.90;;;;;;4983100;28;20622;-75
2021/01/22 14:25:54;;;;;;;7.17;6.20;;;7.80;99.90;;;;;;4988100;28;20964;-75
2021/01/22 14:28:39;;;;;;;6.87;6.17;;;7.80;99.90;;;;;;4980400;28;20692;-75
2021/01/22 14:31:23;;;;;;;8.40;5.30;;;7.80;99.90;;;;;;4987246;28;20956;-75
2021/01/22 14:34:10;;;;;;;7.10;6.20;;;7.80;99.90;;;;;;4974150;28;20652;-75
2021/01/22 14:36:55;;;;;;;9.67;6.17;;;7.70;99.90;;;;;;4990535;28;20732;-75